sensor_id;sensor_type;location;lat;lon;timestamp;pressure;altitude;pressure_sealevel;temperature;humidity
21877;BME280;11103;43.788;23.710;2022-10-16T00:02:24;44818.81;;;8.52;100.00
21877;BME280;11103;43.788;23.710;2022-10-16T00:05:09;37993.13;;;8.52;100.00
21877;BME280;11103;43.788;23.710;2022-10-16T00:07:35;36356.06;;;8.30;100.00
21877;BME280;11103;43.788;23.710;2022-10-16T00:10:00;44149.75;;;8.28;100.00
21877;BME280;11103;43.788;23.710;2022-10-16T00:12:44;53277.16;;;8.40;100.00
21877;BME280;11103;43.788;23.710;2022-10-16T00:15:09;59488.56;;;8.50;100.00
21877;BME280;11103;43.788;23.710;2022-10-16T00:17:35;65345.41;;;8.23;100.00
21877;BME280;11103;43.788;23.710;2022-10-16T00:20:00;72512.88;;;7.93;100.00
21877;BME280;11103;43.788;23.710;2022-10-16T00:22:56;80129.63;;;8.45;100.00
21877;BME280;11103;43.788;23.710;2022-10-16T00:25:21;89326.22;;;8.32;100.00
21877;BME280;11103;43.788;23.710;2022-10-16T00:27:46;79413.00;;;8.02;100.00
21877;BME280;11103;43.788;23.710;2022-10-16T00:30:12;78791.16;;;8.27;100.00
21877;BME280;11103;43.788;23.710;2022-10-16T00:32:44;75813.72;;;8.10;100.00
21877;BME280;11103;43.788;23.710;2022-10-16T00:35:09;69269.47;;;8.20;100.00
21877;BME280;11103;43.788;23.710;2022-10-16T00:37:34;62715.91;;;8.11;100.00
21877;BME280;11103;43.788;23.710;2022-10-16T00:40:00;65640.53;;;7.95;100.00
21877;BME280;11103;43.788;23.710;2022-10-16T00:42:25;65992.31;;;8.17;100.00
21877;BME280;11103;43.788;23.710;2022-10-16T00:44:56;77480.84;;;8.30;100.00
21877;BME280;11103;43.788;23.710;2022-10-16T00:52:31;82739.44;;;8.30;100.00
21877;BME280;11103;43.788;23.710;2022-10-16T00:54:57;82740.16;;;8.31;100.00
21877;BME280;11103;43.788;23.710;2022-10-16T00:57:29;76149.78;;;8.16;100.00
21877;BME280;11103;43.788;23.710;2022-10-16T00:59:55;72195.22;;;8.01;100.00
21877;BME280;11103;43.788;23.710;2022-10-16T01:02:21;69266.44;;;8.17;100.00
21877;BME280;11103;43.788;23.710;2022-10-16T01:04:53;58480.78;;;8.22;100.00
21877;BME280;11103;43.788;23.710;2022-10-16T01:07:29;54561.63;;;8.19;100.00
21877;BME280;11103;43.788;23.710;2022-10-16T01:13:08;62047.09;;;7.97;100.00
21877;BME280;11103;43.788;23.710;2022-10-16T01:18:19;64679.84;;;8.13;100.00
21877;BME280;11103;43.788;23.710;2022-10-16T01:21:04;66286.00;;;7.88;100.00
21877;BME280;11103;43.788;23.710;2022-10-16T01:23:54;63047.16;;;8.15;100.00
21877;BME280;11103;43.788;23.710;2022-10-16T01:26:20;66967.03;;;8.11;100.00
21877;BME280;11103;43.788;23.710;2022-10-16T01:31:40;64321.38;;;7.85;100.00
21877;BME280;11103;43.788;23.710;2022-10-16T01:34:53;74826.31;;;8.08;100.00
21877;BME280;11103;43.788;23.710;2022-10-16T01:37:32;74815.91;;;8.00;100.00
21877;BME280;11103;43.788;23.710;2022-10-16T01:40:00;70866.16;;;7.86;100.00
21877;BME280;11103;43.788;23.710;2022-10-16T01:42:33;71193.66;;;7.86;100.00
21877;BME280;11103;43.788;23.710;2022-10-16T01:45:00;75805.19;;;8.04;100.00
21877;BME280;11103;43.788;23.710;2022-10-16T01:47:27;76743.53;;;7.69;100.00
21877;BME280;11103;43.788;23.710;2022-10-16T01:49:53;83022.28;;;7.98;100.00
21877;BME280;11103;43.788;23.710;2022-10-16T01:52:23;85438.66;;;7.99;100.00
21877;BME280;11103;43.788;23.710;2022-10-16T01:54:51;82689.34;;;7.61;100.00
21877;BME280;11103;43.788;23.710;2022-10-16T01:57:18;77708.69;;;7.55;100.00
21877;BME280;11103;43.788;23.710;2022-10-16T01:59:52;81362.81;;;7.87;100.00
21877;BME280;11103;43.788;23.710;2022-10-16T02:02:21;87796.00;;;7.73;100.00
21877;BME280;11103;43.788;23.710;2022-10-16T02:05:11;83793.03;;;7.84;100.00
21877;BME280;11103;43.788;23.710;2022-10-16T02:07:38;77056.13;;;7.57;100.00
21877;BME280;11103;43.788;23.710;2022-10-16T02:10:04;71516.25;;;7.82;100.00
21877;BME280;11103;43.788;23.710;2022-10-16T02:12:31;70851.97;;;7.74;100.00
21877;BME280;11103;43.788;23.710;2022-10-16T02:14:58;77738.38;;;7.77;100.00
21877;BME280;11103;43.788;23.710;2022-10-16T02:17:24;78401.44;;;7.82;100.00
21877;BME280;11103;43.788;23.710;2022-10-16T02:19:52;84321.19;;;7.60;100.00
21877;BME280;11103;43.788;23.710;2022-10-16T02:22:27;91044.75;;;7.64;100.00
21877;BME280;11103;43.788;23.710;2022-10-16T02:25:30;95188.25;;;7.77;100.00
21877;BME280;11103;43.788;23.710;2022-10-16T02:28:04;92575.25;;;7.76;100.00
21877;BME280;11103;43.788;23.710;2022-10-16T02:33:08;80677.22;;;7.66;100.00
21877;BME280;11103;43.788;23.710;2022-10-16T02:35:35;81267.66;;;7.18;100.00
21877;BME280;11103;43.788;23.710;2022-10-16T02:38:02;84597.38;;;7.51;100.00
21877;BME280;11103;43.788;23.710;2022-10-16T02:40:28;86199.09;;;7.23;100.00
21877;BME280;11103;43.788;23.710;2022-10-16T02:42:54;88480.06;;;7.30;100.00
21877;BME280;11103;43.788;23.710;2022-10-16T02:45:21;84572.50;;;7.34;100.00
21877;BME280;11103;43.788;23.710;2022-10-16T02:47:47;83318.47;;;7.47;100.00
21877;BME280;11103;43.788;23.710;2022-10-16T02:50:13;90456.91;;;7.27;100.00
21877;BME280;11103;43.788;23.710;2022-10-16T02:52:38;87002.22;;;7.38;100.00
21877;BME280;11103;43.788;23.710;2022-10-16T02:55:04;85296.84;;;7.13;100.00
21877;BME280;11103;43.788;23.710;2022-10-16T02:57:31;81922.53;;;7.17;100.00
21877;BME280;11103;43.788;23.710;2022-10-16T02:59:57;80305.69;;;7.35;100.00
21877;BME280;11103;43.788;23.710;2022-10-16T03:02:22;83514.53;;;7.30;100.00
21877;BME280;11103;43.788;23.710;2022-10-16T03:04:48;87144.84;;;7.44;100.00
21877;BME280;11103;43.788;23.710;2022-10-16T03:07:13;90951.03;;;7.35;100.00
21877;BME280;11103;43.788;23.710;2022-10-16T03:09:39;88383.06;;;7.40;100.00
21877;BME280;11103;43.788;23.710;2022-10-16T03:12:11;88126.59;;;7.10;100.00
21877;BME280;11103;43.788;23.710;2022-10-16T03:14:37;89497.22;;;7.38;100.00
21877;BME280;11103;43.788;23.710;2022-10-16T03:17:02;86997.78;;;7.17;100.00
21877;BME280;11103;43.788;23.710;2022-10-16T03:19:28;88082.34;;;6.99;100.00
21877;BME280;11103;43.788;23.710;2022-10-16T03:21:53;88795.22;;;7.00;100.00
21877;BME280;11103;43.788;23.710;2022-10-16T03:24:18;85652.09;;;7.35;100.00
21877;BME280;11103;43.788;23.710;2022-10-16T03:26:44;95993.69;;;7.22;100.00
21877;BME280;11103;43.788;23.710;2022-10-16T03:29:09;55409.06;;;6.83;100.00
21877;BME280;11103;43.788;23.710;2022-10-16T03:31:35;111404.44;;;6.71;100.00
21877;BME280;11103;43.788;23.710;2022-10-16T03:34:00;94971.09;;;6.47;100.00
21877;BME280;11103;43.788;23.710;2022-10-16T03:36:25;71976.97;;;6.26;100.00
21877;BME280;11103;43.788;23.710;2022-10-16T03:38:51;51472.13;;;6.46;100.00
21877;BME280;11103;43.788;23.710;2022-10-16T03:41:16;41721.66;;;6.22;100.00
21877;BME280;11103;43.788;23.710;2022-10-16T03:43:42;37545.63;;;6.68;100.00
21877;BME280;11103;43.788;23.710;2022-10-16T03:46:07;45316.94;;;6.61;100.00
21877;BME280;11103;43.788;23.710;2022-10-16T03:48:33;48865.81;;;6.36;100.00
21877;BME280;11103;43.788;23.710;2022-10-16T03:50:58;43674.06;;;6.33;100.00
21877;BME280;11103;43.788;23.710;2022-10-16T03:53:24;48230.78;;;6.53;100.00
21877;BME280;11103;43.788;23.710;2022-10-16T03:55:49;48871.88;;;6.43;100.00
21877;BME280;11103;43.788;23.710;2022-10-16T03:58:15;45623.53;;;6.39;100.00
21877;BME280;11103;43.788;23.710;2022-10-16T04:00:44;46618.44;;;6.66;100.00
21877;BME280;11103;43.788;23.710;2022-10-16T04:03:11;50513.19;;;6.64;100.00
21877;BME280;11103;43.788;23.710;2022-10-16T04:05:36;43049.75;;;6.65;100.00
21877;BME280;11103;43.788;23.710;2022-10-16T04:08:02;41392.69;;;6.15;100.00
21877;BME280;11103;43.788;23.710;2022-10-16T04:10:28;40436.38;;;6.35;100.00
21877;BME280;11103;43.788;23.710;2022-10-16T04:12:53;43697.38;;;6.64;100.00
21877;BME280;11103;43.788;23.710;2022-10-16T04:15:25;43365.06;;;6.53;100.00
21877;BME280;11103;43.788;23.710;2022-10-16T04:17:51;41417.81;;;6.49;100.00
21877;BME280;11103;43.788;23.710;2022-10-16T04:20:17;40764.53;;;6.41;100.00
21877;BME280;11103;43.788;23.710;2022-10-16T04:22:43;38491.91;;;6.32;100.00
21877;BME280;11103;43.788;23.710;2022-10-16T04:25:08;40764.88;;;6.42;100.00
21877;BME280;11103;43.788;23.710;2022-10-16T04:27:34;34946.88;;;6.51;100.00
21877;BME280;11103;43.788;23.710;2022-10-16T04:30:00;40125.53;;;6.53;100.00
21877;BME280;11103;43.788;23.710;2022-10-16T04:32:26;46928.84;;;6.48;100.00
21877;BME280;11103;43.788;23.710;2022-10-16T04:34:51;47909.56;;;6.57;100.00
21877;BME280;11103;43.788;23.710;2022-10-16T04:37:17;51782.44;;;6.30;100.00
21877;BME280;11103;43.788;23.710;2022-10-16T04:39:42;53399.47;;;6.22;100.00
21877;BME280;11103;43.788;23.710;2022-10-16T04:42:08;49198.69;;;6.46;100.00
21877;BME280;11103;43.788;23.710;2022-10-16T04:44:34;44642.88;;;6.29;100.00
21877;BME280;11103;43.788;23.710;2022-10-16T04:47:00;44313.25;;;6.22;100.00
21877;BME280;11103;43.788;23.710;2022-10-16T04:49:25;46923.41;;;6.42;100.00
21877;BME280;11103;43.788;23.710;2022-10-16T04:51:51;44641.69;;;6.27;100.00
21877;BME280;11103;43.788;23.710;2022-10-16T04:54:18;50785.22;;;6.04;100.00
21877;BME280;11103;43.788;23.710;2022-10-16T04:56:43;51121.09;;;6.17;100.00
21877;BME280;11103;43.788;23.710;2022-10-16T04:59:16;54391.66;;;6.40;100.00
21877;BME280;11103;43.788;23.710;2022-10-16T05:01:41;52771.00;;;6.45;100.00
21877;BME280;11103;43.788;23.710;2022-10-16T05:04:07;51477.13;;;6.51;100.00
21877;BME280;11103;43.788;23.710;2022-10-16T05:06:32;54074.16;;;6.48;100.00
21877;BME280;11103;43.788;23.710;2022-10-16T05:08:58;53726.31;;;6.24;100.00
21877;BME280;11103;43.788;23.710;2022-10-16T05:11:23;51141.84;;;6.40;100.00
21877;BME280;11103;43.788;23.710;2022-10-16T05:13:49;53395.69;;;6.18;100.00
21877;BME280;11103;43.788;23.710;2022-10-16T05:16:15;48545.97;;;6.42;100.00
21877;BME280;11103;43.788;23.710;2022-10-16T05:18:40;49530.38;;;6.54;100.00
21877;BME280;11103;43.788;23.710;2022-10-16T05:21:06;51175.22;;;6.77;100.00
21877;BME280;11103;43.788;23.710;2022-10-16T05:23:31;70167.25;;;7.50;100.00
21877;BME280;11103;43.788;23.710;2022-10-16T05:25:58;115378.31;;;8.31;100.00
21877;BME280;11103;43.788;23.710;2022-10-16T05:28:25;148593.94;;;8.80;100.00
21877;BME280;11103;43.788;23.710;2022-10-16T05:30:50;148754.97;;;9.43;100.00
21877;BME280;11103;43.788;23.710;2022-10-16T05:33:16;148893.09;;;9.98;100.00
21877;BME280;11103;43.788;23.710;2022-10-16T05:35:41;149014.72;;;10.46;100.00
21877;BME280;11103;43.788;23.710;2022-10-16T05:38:07;149077.44;;;10.70;100.00
21877;BME280;11103;43.788;23.710;2022-10-16T05:40:32;149035.19;;;10.54;100.00
21877;BME280;11103;43.788;23.710;2022-10-16T05:42:58;149182.38;;;11.12;100.00
21877;BME280;11103;43.788;23.710;2022-10-16T05:45:23;149213.13;;;11.24;100.00
21877;BME280;11103;43.788;23.710;2022-10-16T05:47:49;149364.34;;;11.83;100.00
21877;BME280;11103;43.788;23.710;2022-10-16T05:50:14;149374.59;;;11.87;100.00
21877;BME280;11103;43.788;23.710;2022-10-16T05:52:40;149350.22;;;11.78;100.00
21877;BME280;11103;43.788;23.710;2022-10-16T05:55:05;149420.72;;;12.06;100.00
21877;BME280;11103;43.788;23.710;2022-10-16T05:57:31;149400.22;;;11.98;100.00
21877;BME280;11103;43.788;23.710;2022-10-16T05:59:56;149365.63;;;11.84;100.00
21877;BME280;11103;43.788;23.710;2022-10-16T06:02:22;149368.16;;;11.85;100.00
21877;BME280;11103;43.788;23.710;2022-10-16T06:04:47;149332.31;;;11.71;100.00
21877;BME280;11103;43.788;23.710;2022-10-16T06:07:13;149220.81;;;11.27;100.00
21877;BME280;11103;43.788;23.710;2022-10-16T06:09:38;149201.63;;;11.19;100.00
21877;BME280;11103;43.788;23.710;2022-10-16T06:12:04;149154.22;;;11.01;100.00
21877;BME280;11103;43.788;23.710;2022-10-16T06:14:29;149003.16;;;10.41;100.00
21877;BME280;11103;43.788;23.710;2022-10-16T06:16:55;149037.72;;;10.55;100.00
21877;BME280;11103;43.788;23.710;2022-10-16T06:19:20;148985.28;;;10.34;100.00
21877;BME280;11103;43.788;23.710;2022-10-16T06:21:46;149049.28;;;10.59;100.00
21877;BME280;11103;43.788;23.710;2022-10-16T06:24:13;149082.53;;;10.72;100.00
21877;BME280;11103;43.788;23.710;2022-10-16T06:26:38;149022.41;;;10.49;100.00
21877;BME280;11103;43.788;23.710;2022-10-16T06:29:04;149032.63;;;10.53;100.00
21877;BME280;11103;43.788;23.710;2022-10-16T06:31:32;149065.88;;;10.66;100.00
21877;BME280;11103;43.788;23.710;2022-10-16T06:33:59;149110.72;;;10.84;100.00
21877;BME280;11103;43.788;23.710;2022-10-16T06:36:25;149115.81;;;10.86;100.00
21877;BME280;11103;43.788;23.710;2022-10-16T06:38:53;149037.72;;;10.55;100.00
21877;BME280;11103;43.788;23.710;2022-10-16T06:41:20;149096.63;;;10.78;100.00
21877;BME280;11103;43.788;23.710;2022-10-16T06:43:46;149103.03;;;10.81;100.00
21877;BME280;11103;43.788;23.710;2022-10-16T06:46:15;149129.91;;;10.91;100.00
21877;BME280;11103;43.788;23.710;2022-10-16T06:48:42;149085.06;;;10.73;100.00
21877;BME280;11103;43.788;23.710;2022-10-16T06:51:15;149164.47;;;11.05;100.00
21877;BME280;11103;43.788;23.710;2022-10-16T06:53:45;149174.69;;;11.09;100.00
21877;BME280;11103;43.788;23.710;2022-10-16T06:56:19;149195.22;;;11.17;100.00
21877;BME280;11103;43.788;23.710;2022-10-16T06:58:45;149197.75;;;11.18;100.00
21877;BME280;11103;43.788;23.710;2022-10-16T07:01:12;149181.13;;;11.11;100.00
21877;BME280;11103;43.788;23.710;2022-10-16T07:03:40;149246.41;;;11.37;100.00
21877;BME280;11103;43.788;23.710;2022-10-16T07:06:06;149266.91;;;11.45;100.00
21877;BME280;11103;43.788;23.710;2022-10-16T07:08:43;149208.03;;;11.22;100.00
21877;BME280;11103;43.788;23.710;2022-10-16T07:11:14;149287.41;;;11.53;100.00
21877;BME280;11103;43.788;23.710;2022-10-16T07:13:41;149360.50;;;11.82;100.00
21877;BME280;11103;43.788;23.710;2022-10-16T07:16:11;149340.00;;;11.74;100.00
21877;BME280;11103;43.788;23.710;2022-10-16T07:18:38;149354.09;;;11.79;100.00
21877;BME280;11103;43.788;23.710;2022-10-16T07:21:15;149414.31;;;12.03;100.00
21877;BME280;11103;43.788;23.710;2022-10-16T07:23:41;149434.81;;;12.11;100.00
21877;BME280;11103;43.788;23.710;2022-10-16T07:26:09;149400.22;;;11.98;100.00
21877;BME280;11103;43.788;23.710;2022-10-16T07:28:35;149497.63;;;12.36;100.00
21877;BME280;11103;43.788;23.710;2022-10-16T07:31:05;149452.75;;;12.18;100.00
21877;BME280;11103;43.788;23.710;2022-10-16T07:33:32;149500.16;;;12.37;100.00
21877;BME280;11103;43.788;23.710;2022-10-16T07:35:58;149487.34;;;12.32;100.00
21877;BME280;11103;43.788;23.710;2022-10-16T07:38:23;149475.84;;;12.27;100.00
21877;BME280;11103;43.788;23.710;2022-10-16T07:40:56;149530.94;;;12.49;100.00
21877;BME280;11103;43.788;23.710;2022-10-16T07:43:22;149543.75;;;12.54;100.00
21877;BME280;11103;43.788;23.710;2022-10-16T07:45:48;149587.38;;;12.71;100.00
21877;BME280;11103;43.788;23.710;2022-10-16T07:48:15;149609.19;;;12.80;100.00
21877;BME280;11103;43.788;23.710;2022-10-16T07:50:40;149638.63;;;12.91;100.00
21877;BME280;11103;43.788;23.710;2022-10-16T07:53:06;149657.91;;;12.99;100.00
21877;BME280;11103;43.788;23.710;2022-10-16T07:55:31;149669.44;;;13.03;100.00
21877;BME280;11103;43.788;23.710;2022-10-16T07:57:57;149686.13;;;13.10;100.00
21877;BME280;11103;43.788;23.710;2022-10-16T08:00:22;149718.22;;;13.23;100.00
21877;BME280;11103;43.788;23.710;2022-10-16T08:02:48;149710.53;;;13.20;100.00
21877;BME280;11103;43.788;23.710;2022-10-16T08:05:13;149737.47;;;13.30;100.00
21877;BME280;11103;43.788;23.710;2022-10-16T08:07:39;149790.06;;;13.51;100.00
21877;BME280;11103;43.788;23.710;2022-10-16T08:10:04;149817.03;;;13.61;100.00
21877;BME280;11103;43.788;23.710;2022-10-16T08:12:30;149813.16;;;13.60;100.00
21877;BME280;11103;43.788;23.710;2022-10-16T08:14:55;149843.97;;;13.72;100.00
21877;BME280;11103;43.788;23.710;2022-10-16T08:17:21;149831.09;;;13.67;100.00
21877;BME280;11103;43.788;23.710;2022-10-16T08:19:47;149864.53;;;13.80;100.00
21877;BME280;11103;43.788;23.710;2022-10-16T08:22:13;149854.22;;;13.76;100.00
21877;BME280;11103;43.788;23.710;2022-10-16T08:24:39;149856.81;;;13.77;100.00
21877;BME280;11103;43.788;23.710;2022-10-16T08:27:05;149910.72;;;13.98;100.00
21877;BME280;11103;43.788;23.710;2022-10-16T08:29:30;149935.06;;;14.08;100.00
21877;BME280;11103;43.788;23.710;2022-10-16T08:31:55;149995.50;;;14.32;100.00
21877;BME280;11103;43.788;23.710;2022-10-16T08:34:21;150044.31;;;14.51;100.00
21877;BME280;11103;43.788;23.710;2022-10-16T08:36:47;150077.69;;;14.64;100.00
21877;BME280;11103;43.788;23.710;2022-10-16T08:39:13;150034.00;;;14.47;100.00
21877;BME280;11103;43.788;23.710;2022-10-16T08:44:35;150129.03;;;14.84;100.00
21877;BME280;11103;43.788;23.710;2022-10-16T08:47:23;150130.31;;;14.84;100.00
21877;BME280;11103;43.788;23.710;2022-10-16T08:50:02;150121.38;;;14.81;100.00
21877;BME280;11103;43.788;23.710;2022-10-16T08:52:35;150159.88;;;14.96;100.00
21877;BME280;11103;43.788;23.710;2022-10-16T08:55:04;150211.31;;;15.16;100.00
21877;BME280;11103;43.788;23.710;2022-10-16T08:57:29;150188.16;;;15.07;100.00
21877;BME280;11103;43.788;23.710;2022-10-16T09:00:00;150240.81;;;15.28;100.00
21877;BME280;11103;43.788;23.710;2022-10-16T09:02:48;150221.56;;;15.20;100.00
21877;BME280;11103;43.788;23.710;2022-10-16T09:11:01;150233.09;;;15.25;100.00
21877;BME280;11103;43.788;23.710;2022-10-16T09:13:47;150227.97;;;15.23;100.00
21877;BME280;11103;43.788;23.710;2022-10-16T09:16:19;150303.84;;;15.53;100.00
21877;BME280;11103;43.788;23.710;2022-10-16T09:23:44;150353.97;;;15.72;99.36
21877;BME280;11103;43.788;23.710;2022-10-16T09:26:12;150406.69;;;15.93;99.65
21877;BME280;11103;43.788;23.710;2022-10-16T09:28:38;150442.69;;;16.07;98.85
21877;BME280;11103;43.788;23.710;2022-10-16T09:31:03;150468.41;;;16.17;98.98
21877;BME280;11103;43.788;23.710;2022-10-16T09:33:33;150473.56;;;16.19;100.00
21877;BME280;11103;43.788;23.710;2022-10-16T09:36:02;150487.72;;;16.25;100.00
21877;BME280;11103;43.788;23.710;2022-10-16T09:38:31;150503.13;;;16.31;99.86
21877;BME280;11103;43.788;23.710;2022-10-16T09:40:58;150514.72;;;16.35;97.68
21877;BME280;11103;43.788;23.710;2022-10-16T09:43:28;150581.66;;;16.61;96.47
21877;BME280;11103;43.788;23.710;2022-10-16T09:46:03;150555.88;;;16.51;95.53
21877;BME280;11103;43.788;23.710;2022-10-16T09:48:38;150581.66;;;16.61;91.81
21877;BME280;11103;43.788;23.710;2022-10-16T09:51:06;150618.97;;;16.76;90.86
21877;BME280;11103;43.788;23.710;2022-10-16T09:53:46;150643.41;;;16.86;91.15
21877;BME280;11103;43.788;23.710;2022-10-16T09:56:30;150609.97;;;16.73;86.36
21877;BME280;11103;43.788;23.710;2022-10-16T09:59:00;150604.81;;;16.71;84.03
21877;BME280;11103;43.788;23.710;2022-10-16T10:01:31;150647.28;;;16.87;83.70
21877;BME280;11103;43.788;23.710;2022-10-16T10:04:01;150647.28;;;16.87;84.11
21877;BME280;11103;43.788;23.710;2022-10-16T10:06:33;150696.19;;;17.06;83.44
21877;BME280;11103;43.788;23.710;2022-10-16T10:09:04;150671.72;;;16.97;86.19
21877;BME280;11103;43.788;23.710;2022-10-16T10:14:21;150759.25;;;17.31;82.60
21877;BME280;11103;43.788;23.710;2022-10-16T10:16:48;150712.88;;;17.13;81.81
21877;BME280;11103;43.788;23.710;2022-10-16T10:19:23;150743.81;;;17.25;83.86
21877;BME280;11103;43.788;23.710;2022-10-16T10:21:50;150783.69;;;17.41;77.73
21877;BME280;11103;43.788;23.710;2022-10-16T10:24:18;150738.63;;;17.23;77.95
21877;BME280;11103;43.788;23.710;2022-10-16T10:29:39;150854.56;;;17.68;88.43
21877;BME280;11103;43.788;23.710;2022-10-16T10:40:24;150960.16;;;18.10;72.07
21877;BME280;11103;43.788;23.710;2022-10-16T10:43:27;150987.22;;;18.20;71.45
21877;BME280;11103;43.788;23.710;2022-10-16T10:46:29;150964.00;;;18.11;66.71
21877;BME280;11103;43.788;23.710;2022-10-16T10:54:41;150966.63;;;18.12;59.50
21877;BME280;11103;43.788;23.710;2022-10-16T10:57:28;150996.19;;;18.24;57.59
21877;BME280;11103;43.788;23.710;2022-10-16T11:02:41;150955.00;;;18.08;56.23
21877;BME280;11103;43.788;23.710;2022-10-16T11:05:43;150996.19;;;18.24;60.09
21877;BME280;11103;43.788;23.710;2022-10-16T11:08:27;151020.72;;;18.33;63.00
21877;BME280;11103;43.788;23.710;2022-10-16T11:11:03;151037.41;;;18.40;63.96
21877;BME280;11103;43.788;23.710;2022-10-16T11:13:37;151083.88;;;18.58;62.81
21877;BME280;11103;43.788;23.710;2022-10-16T11:16:28;151061.97;;;18.50;61.60
21877;BME280;11103;43.788;23.710;2022-10-16T11:21:30;151071.00;;;18.53;61.66
21877;BME280;11103;43.788;23.710;2022-10-16T11:24:41;151100.63;;;18.65;66.54
21877;BME280;11103;43.788;23.710;2022-10-16T11:27:09;151114.78;;;18.70;65.24
21877;BME280;11103;43.788;23.710;2022-10-16T11:29:45;151118.69;;;18.72;54.77
21877;BME280;11103;43.788;23.710;2022-10-16T11:32:25;151145.72;;;18.82;56.17
21877;BME280;11103;43.788;23.710;2022-10-16T11:35:11;151081.28;;;18.57;61.13
21877;BME280;11103;43.788;23.710;2022-10-16T11:37:43;151117.38;;;18.71;59.22
21877;BME280;11103;43.788;23.710;2022-10-16T11:40:19;151125.13;;;18.74;59.45
21877;BME280;11103;43.788;23.710;2022-10-16T11:42:54;151119.97;;;18.72;61.84
21877;BME280;11103;43.788;23.710;2022-10-16T11:50:52;151167.66;;;18.91;58.78
21877;BME280;11103;43.788;23.710;2022-10-16T11:55:58;151091.63;;;18.61;57.65
21877;BME280;11103;43.788;23.710;2022-10-16T12:00:57;151176.66;;;18.94;59.14
21877;BME280;11103;43.788;23.710;2022-10-16T12:09:29;151089.03;;;18.60;58.34
21877;BME280;11103;43.788;23.710;2022-10-16T12:11:55;151179.25;;;18.95;55.51
21877;BME280;11103;43.788;23.710;2022-10-16T12:17:02;151233.38;;;19.17;57.53
21877;BME280;11103;43.788;23.710;2022-10-16T12:19:30;151211.44;;;19.08;58.18
21877;BME280;11103;43.788;23.710;2022-10-16T12:21:59;151210.19;;;19.08;57.42
21877;BME280;11103;43.788;23.710;2022-10-16T12:26:56;151220.47;;;19.12;55.64
21877;BME280;11103;43.788;23.710;2022-10-16T12:29:30;151179.25;;;18.95;57.32
21877;BME280;11103;43.788;23.710;2022-10-16T12:31:57;151181.84;;;18.96;55.89
21877;BME280;11103;43.788;23.710;2022-10-16T12:34:39;151229.53;;;19.15;56.75
21877;BME280;11103;43.788;23.710;2022-10-16T12:39:39;151217.88;;;19.11;58.03
21877;BME280;11103;43.788;23.710;2022-10-16T12:44:44;151207.59;;;19.07;58.49
21877;BME280;11103;43.788;23.710;2022-10-16T12:47:23;151296.59;;;19.41;60.88
21877;BME280;11103;43.788;23.710;2022-10-16T12:49:52;151284.97;;;19.37;55.93
21877;BME280;11103;43.788;23.710;2022-10-16T12:52:37;151288.84;;;19.38;59.15
21877;BME280;11103;43.788;23.710;2022-10-16T12:55:04;151295.28;;;19.41;54.17
21877;BME280;11103;43.788;23.710;2022-10-16T13:00:57;151300.50;;;19.43;55.09
21877;BME280;11103;43.788;23.710;2022-10-16T13:03:49;151314.69;;;19.48;55.48
21877;BME280;11103;43.788;23.710;2022-10-16T13:06:14;151290.16;;;19.39;53.93
21877;BME280;11103;43.788;23.710;2022-10-16T13:09:19;151299.19;;;19.42;55.71
21877;BME280;11103;43.788;23.710;2022-10-16T13:17:28;151321.13;;;19.51;54.48
21877;BME280;11103;43.788;23.710;2022-10-16T13:20:20;151229.53;;;19.15;53.79
21877;BME280;11103;43.788;23.710;2022-10-16T13:28:46;151162.47;;;18.89;54.22
21877;BME280;11103;43.788;23.710;2022-10-16T13:31:18;151239.81;;;19.19;54.20
21877;BME280;11103;43.788;23.710;2022-10-16T13:33:50;151193.41;;;19.01;55.35
21877;BME280;11103;43.788;23.710;2022-10-16T13:36:28;151198.56;;;19.03;57.20
21877;BME280;11103;43.788;23.710;2022-10-16T13:39:10;151138.00;;;18.79;56.26
21877;BME280;11103;43.788;23.710;2022-10-16T13:41:37;151161.22;;;18.88;55.86
21877;BME280;11103;43.788;23.710;2022-10-16T13:44:02;151161.22;;;18.88;56.65
21877;BME280;11103;43.788;23.710;2022-10-16T13:46:29;151224.38;;;19.13;53.82
21877;BME280;11103;43.788;23.710;2022-10-16T13:49:19;151224.38;;;19.13;56.35
21877;BME280;11103;43.788;23.710;2022-10-16T13:52:15;151229.53;;;19.15;55.94
21877;BME280;11103;43.788;23.710;2022-10-16T13:54:41;151180.53;;;18.96;56.81
21877;BME280;11103;43.788;23.710;2022-10-16T13:57:07;151176.66;;;18.94;59.19
21877;BME280;11103;43.788;23.710;2022-10-16T13:59:34;151143.13;;;18.81;59.57
21877;BME280;11103;43.788;23.710;2022-10-16T14:02:05;151198.56;;;19.03;60.68
21877;BME280;11103;43.788;23.710;2022-10-16T14:04:39;151171.50;;;18.92;55.98
21877;BME280;11103;43.788;23.710;2022-10-16T14:07:04;151210.19;;;19.08;65.50
21877;BME280;11103;43.788;23.710;2022-10-16T14:09:30;151150.88;;;18.84;61.45
21877;BME280;11103;43.788;23.710;2022-10-16T14:12:17;151153.47;;;18.85;59.76
21877;BME280;11103;43.788;23.710;2022-10-16T14:14:48;151158.63;;;18.87;59.51
21877;BME280;11103;43.788;23.710;2022-10-16T14:17:18;151185.69;;;18.98;64.76
21877;BME280;11103;43.788;23.710;2022-10-16T14:19:46;151174.09;;;18.93;62.87
21877;BME280;11103;43.788;23.710;2022-10-16T14:22:26;151086.44;;;18.59;59.97
21877;BME280;11103;43.788;23.710;2022-10-16T14:24:53;151101.91;;;18.65;66.49
21877;BME280;11103;43.788;23.710;2022-10-16T14:27:34;151078.75;;;18.56;65.87
21877;BME280;11103;43.788;23.710;2022-10-16T14:32:53;151117.38;;;18.71;68.51
21877;BME280;11103;43.788;23.710;2022-10-16T14:35:34;151099.38;;;18.64;67.09